Terminal Aerodrome Forecast
Issued by NWS Portland, OR

Home | Current Version | Previous Version | Text Only | Print | Product List | Glossary On
Versions: 1 2 3 4 5 6 7 8 9 10 11 12 13 14 15 16 17 18 19 20 21 22 23 24 25 26 27 28 29 30 31 32 33 34 35 36 37
000
FTUS46 KPQR 012320
TAFEUG
TAF
KEUG 012320Z 0200/0224 22010G20KT P6SM FEW050 SCT120 BKN200
     FM020400 20004KT P6SM VCSH BKN025 OVC050
     FM020900 19004KT 4SM -SHRA BR SCT008 OVC025
     FM022100 28006KT P6SM VCSH SCT025 BKN050=

USA.gov is the U.S. government's official web portal to all federal, state and local government web resources and services.